Arcanum, Ohio
Current Conditions -  °F | °C
As of 10:15 PM on Saturday 20 Dec 2014 (Local Time) from KVES Reporting Station
Haze Haze  
Wind Chill: 27°   Ceiling: 3100
Heat Index: 27°   Visibility: 5mi
Dew Point: 27°   Wind: 0mph
Humidity: 100%   Direction: NA
Pressure: 30.27"   Gusts: NA
Location:  39.99°N, 84.55°W
Report Text: KVES 210315Z AUTO 00000KT 5SM BR OVC031 M03/M03 A3027 RMK AO2
Loading
Personal Weather Stations






























Interactive Weather Map New forecast layout! Learn more

10-Day Weather Forecast

Advertisements
Track Severe Weather on mobile